createdAt,value
2018-12-29T00:00:46.312Z,34.23
2018-12-29T00:03:15.151Z,35.00
2018-12-29T00:05:43.972Z,32.03
2018-12-29T00:08:12.819Z,32.43
2018-12-29T00:10:41.662Z,30.93
2018-12-29T00:13:10.496Z,31.13
2018-12-29T00:15:40.081Z,31.13
2018-12-29T00:18:08.920Z,33.23
2018-12-29T00:20:37.760Z,32.50
2018-12-29T00:23:06.599Z,33.90
2018-12-29T00:25:35.437Z,33.90
2018-12-29T00:28:04.281Z,32.95
2018-12-29T00:30:33.155Z,31.08
2018-12-29T00:33:01.961Z,33.57
2018-12-29T00:35:30.799Z,32.00
2018-12-29T00:37:59.636Z,31.73
2018-12-29T00:40:28.463Z,32.05
2018-12-29T00:42:57.891Z,32.13
2018-12-29T00:45:27.477Z,31.23
2018-12-29T00:47:57.047Z,31.87
2018-12-29T00:50:25.916Z,31.23
2018-12-29T00:52:55.459Z,26.93
2018-12-29T00:55:24.308Z,29.40
2018-12-29T00:57:53.178Z,29.50
2018-12-29T01:00:21.987Z,28.47
2018-12-29T01:02:50.828Z,27.67
2018-12-29T01:05:20.259Z,26.53
2018-12-29T01:07:49.105Z,30.60
2018-12-29T01:10:17.950Z,30.98
2018-12-29T01:12:46.795Z,30.40
2018-12-29T01:15:15.628Z,29.10
2018-12-29T01:17:44.471Z,27.93
2018-12-29T01:20:13.298Z,27.53
2018-12-29T01:22:42.131Z,26.50
2018-12-29T01:25:10.973Z,29.03
2018-12-29T01:27:40.546Z,25.47
2018-12-29T01:30:09.383Z,25.60
2018-12-29T01:32:38.225Z,25.07
2018-12-29T01:35:07.074Z,26.03
2018-12-29T01:37:35.919Z,27.80
2018-12-29T01:40:05.509Z,27.70
2018-12-29T01:42:34.356Z,26.50
2018-12-29T01:45:03.195Z,29.20
2018-12-29T01:47:32.026Z,26.63
2018-12-29T01:50:00.861Z,28.70
2018-12-29T01:52:29.696Z,27.00
2018-12-29T01:54:58.530Z,27.20
2018-12-29T01:57:27.365Z,28.00
2018-12-29T01:59:56.207Z,26.43
2018-12-29T02:02:25.054Z,25.57
2018-12-29T02:04:53.867Z,27.37
2018-12-29T02:07:23.454Z,25.37
2018-12-29T02:09:52.300Z,24.87
2018-12-29T02:12:21.146Z,25.40
2018-12-29T02:14:50.726Z,24.20
2018-12-29T02:17:19.598Z,23.37
2018-12-29T02:19:48.469Z,25.70
2018-12-29T02:22:17.276Z,23.73
2018-12-29T02:24:46.108Z,23.73
2018-12-29T02:27:15.686Z,23.53
2018-12-29T02:29:44.520Z,23.50
2018-12-29T02:32:13.365Z,25.90
2018-12-29T02:34:42.194Z,23.90
2018-12-29T02:37:11.063Z,19.30
2018-12-29T02:39:39.907Z,26.77
2018-12-29T02:42:08.743Z,25.97
2018-12-29T02:44:37.617Z,26.93
2018-12-29T02:47:07.214Z,30.17
2018-12-29T02:49:36.055Z,30.05
2018-12-29T02:52:04.895Z,28.27
2018-12-29T02:54:33.735Z,29.20
2018-12-29T02:57:02.571Z,27.17
2018-12-29T02:59:31.421Z,28.07
2018-12-29T03:02:00.305Z,28.87
2018-12-29T03:04:29.109Z,28.77
2018-12-29T03:06:57.959Z,30.30
2018-12-29T03:09:27.535Z,30.43
2018-12-29T03:11:56.385Z,28.83
2018-12-29T03:14:25.231Z,30.50
2018-12-29T03:16:54.052Z,21.47
2018-12-29T03:19:22.905Z,28.80
2018-12-29T03:21:51.753Z,29.27
2018-12-29T03:24:20.601Z,31.37
2018-12-29T03:26:49.444Z,27.77
2018-12-29T03:29:18.281Z,30.20
2018-12-29T03:31:47.857Z,28.20
2018-12-29T03:34:16.716Z,28.43
2018-12-29T03:36:45.543Z,29.27
2018-12-29T03:39:14.393Z,29.53
2018-12-29T03:41:43.234Z,27.73
2018-12-29T03:44:12.816Z,26.47
2018-12-29T03:46:41.653Z,26.37
2018-12-29T03:49:10.503Z,26.70
2018-12-29T03:51:39.347Z,27.13
2018-12-29T03:54:08.188Z,29.12
2018-12-29T03:56:37.775Z,27.67
2018-12-29T03:59:06.634Z,29.47
2018-12-29T04:01:35.463Z,28.67
2018-12-29T04:04:04.294Z,25.97
2018-12-29T04:06:33.133Z,27.97
2018-12-29T04:09:19.767Z,26.17
2018-12-29T04:11:48.606Z,27.73
2018-12-29T04:14:17.439Z,27.77
2018-12-29T04:16:46.291Z,27.67
2018-12-29T04:19:15.116Z,28.90
2018-12-29T04:21:43.954Z,29.92
2018-12-29T04:24:12.807Z,28.38
2018-12-29T04:26:41.656Z,27.23
2018-12-29T04:29:10.479Z,26.73
2018-12-29T04:31:40.059Z,28.90
2018-12-29T04:34:08.892Z,27.90
2018-12-29T04:36:37.724Z,26.07
2018-12-29T04:39:06.568Z,28.50
2018-12-29T04:41:35.413Z,29.20
2018-12-29T04:44:04.248Z,27.97
2018-12-29T04:46:33.090Z,26.97
2018-12-29T04:49:01.930Z,27.17
2018-12-29T04:51:30.764Z,29.97
2018-12-29T04:53:59.594Z,27.07
2018-12-29T04:56:28.466Z,28.27
2018-12-29T04:58:57.318Z,27.07
2018-12-29T05:01:26.154Z,29.63
2018-12-29T05:03:54.990Z,28.23
2018-12-29T05:06:23.830Z,28.50
2018-12-29T05:08:53.416Z,28.83
2018-12-29T05:11:22.255Z,25.63
2018-12-29T05:13:51.095Z,27.63
2018-12-29T05:16:19.936Z,27.40
2018-12-29T05:18:49.706Z,25.43
2018-12-29T05:21:19.292Z,27.53
2018-12-29T05:23:48.124Z,29.90
2018-12-29T05:26:16.952Z,27.90
2018-12-29T05:28:45.798Z,26.47
2018-12-29T05:31:14.632Z,25.77
2018-12-29T05:33:43.472Z,25.80
2018-12-29T05:36:13.076Z,26.23
2018-12-29T05:38:42.648Z,25.97
2018-12-29T05:41:11.493Z,27.93
2018-12-29T05:43:40.325Z,28.13
2018-12-29T05:46:09.151Z,29.03
2018-12-29T05:48:37.997Z,31.77
2018-12-29T05:51:06.848Z,30.73
2018-12-29T05:53:35.711Z,29.43
2018-12-29T05:56:05.296Z,27.23
2018-12-29T05:58:34.144Z,28.80
2018-12-29T06:01:02.993Z,29.27
2018-12-29T06:03:32.571Z,30.13
2018-12-29T06:06:01.412Z,31.47
2018-12-29T06:08:30.986Z,30.90
2018-12-29T06:10:59.822Z,28.83
2018-12-29T06:13:28.663Z,28.43
2018-12-29T06:15:58.256Z,27.63
2018-12-29T06:18:27.151Z,30.80
2018-12-29T06:20:55.954Z,28.90
2018-12-29T06:23:25.537Z,28.50
2018-12-29T06:25:54.367Z,30.50
2018-12-29T06:28:23.214Z,31.07
2018-12-29T06:30:52.056Z,29.53
2018-12-29T06:33:20.983Z,27.60
2018-12-29T06:35:49.786Z,28.60
2018-12-29T06:38:18.648Z,25.93
2018-12-29T06:40:47.500Z,28.73
2018-12-29T06:43:16.354Z,27.00
2018-12-29T06:45:45.343Z,27.33
2018-12-29T06:48:14.180Z,30.00
2018-12-29T06:50:43.034Z,28.73
2018-12-29T06:53:11.894Z,30.92
2018-12-29T06:55:40.728Z,30.07
2018-12-29T06:58:10.314Z,28.53
2018-12-29T07:00:39.175Z,28.17
2018-12-29T07:03:08.022Z,30.35
2018-12-29T07:05:36.874Z,28.80
2018-12-29T07:08:05.727Z,28.83
2018-12-29T07:10:34.561Z,28.87
2018-12-29T07:13:03.423Z,28.23
2018-12-29T07:15:32.262Z,27.03
2018-12-29T07:18:01.866Z,27.13
2018-12-29T07:20:31.539Z,30.47
2018-12-29T07:23:00.328Z,29.77
2018-12-29T07:25:29.166Z,29.63
2018-12-29T07:27:58.012Z,30.33
2018-12-29T07:30:26.850Z,27.73
2018-12-29T07:32:55.680Z,28.37
2018-12-29T07:35:24.519Z,27.80
2018-12-29T07:37:53.398Z,28.27
2018-12-29T07:40:22.254Z,28.17
2018-12-29T07:42:51.106Z,29.07
2018-12-29T07:45:19.997Z,29.97
2018-12-29T07:47:49.539Z,32.27
2018-12-29T07:50:18.382Z,28.23
2018-12-29T07:52:47.228Z,29.20
2018-12-29T07:55:16.074Z,28.33
2018-12-29T07:57:44.925Z,33.63
2018-12-29T08:00:13.791Z,31.23
2018-12-29T08:02:42.626Z,30.50
2018-12-29T08:05:11.472Z,30.20
2018-12-29T08:07:40.311Z,32.30
2018-12-29T08:10:09.144Z,28.43
2018-12-29T08:12:37.982Z,33.40
2018-12-29T08:15:06.809Z,33.17
2018-12-29T08:17:36.396Z,30.87
2018-12-29T08:20:05.241Z,30.73
2018-12-29T08:22:34.067Z,33.13
2018-12-29T08:25:02.943Z,32.03
2018-12-29T08:27:31.781Z,34.83
2018-12-29T08:30:00.619Z,31.60
2018-12-29T08:32:29.454Z,29.20
2018-12-29T08:34:58.297Z,29.47
2018-12-29T08:37:27.133Z,30.57
2018-12-29T08:39:55.965Z,31.67
2018-12-29T08:42:24.807Z,31.07
2018-12-29T08:44:53.649Z,33.20
2018-12-29T08:47:22.482Z,30.37
2018-12-29T08:49:51.323Z,29.83
2018-12-29T08:52:20.151Z,31.50
2018-12-29T08:54:49.729Z,35.37
2018-12-29T08:57:18.565Z,38.47
2018-12-29T08:59:47.397Z,35.83
2018-12-29T09:02:16.286Z,33.03
2018-12-29T09:04:45.086Z,30.20
2018-12-29T09:07:13.915Z,32.33
2018-12-29T09:09:42.751Z,29.37
2018-12-29T09:12:11.581Z,28.90
2018-12-29T09:14:41.163Z,29.43
2018-12-29T09:17:12.261Z,32.00
2018-12-29T09:19:38.835Z,29.20
2018-12-29T09:22:07.674Z,29.73
2018-12-29T09:24:36.504Z,29.90
2018-12-29T09:27:05.348Z,28.73
2018-12-29T09:29:34.211Z,29.40
2018-12-29T09:32:03.042Z,28.20
2018-12-29T09:34:31.874Z,29.83
2018-12-29T09:37:00.708Z,29.10
2018-12-29T09:39:29.616Z,28.90
2018-12-29T09:41:58.402Z,29.13
2018-12-29T09:44:27.241Z,31.70
2018-12-29T09:46:56.842Z,31.47
2018-12-29T09:49:25.692Z,30.67
2018-12-29T09:51:54.515Z,29.30
2018-12-29T09:54:23.349Z,31.57
2018-12-29T09:56:52.222Z,29.23
2018-12-29T09:59:21.053Z,30.67
2018-12-29T10:01:49.871Z,30.10
2018-12-29T10:04:18.701Z,27.67
2018-12-29T10:06:47.567Z,27.33
2018-12-29T10:09:16.363Z,27.83
2018-12-29T10:11:45.207Z,27.97
2018-12-29T10:14:14.047Z,30.73
2018-12-29T10:16:42.883Z,30.97
2018-12-29T10:19:11.720Z,32.97
2018-12-29T10:21:40.561Z,29.47
2018-12-29T10:24:09.408Z,28.10
2018-12-29T10:26:38.239Z,29.47
2018-12-29T10:29:07.092Z,29.13
2018-12-29T10:31:35.950Z,30.85
2018-12-29T10:34:05.537Z,31.07
2018-12-29T10:36:34.371Z,29.93
2018-12-29T10:39:03.219Z,30.17
2018-12-29T10:41:32.061Z,29.33
2018-12-29T10:44:00.899Z,31.73
2018-12-29T10:46:30.467Z,31.43
2018-12-29T10:48:59.313Z,33.23
2018-12-29T10:51:28.893Z,30.27
2018-12-29T10:53:57.738Z,31.03
2018-12-29T10:56:26.585Z,33.17
2018-12-29T10:58:56.467Z,32.40
2018-12-29T11:01:24.679Z,33.90
2018-12-29T11:03:53.533Z,32.40
2018-12-29T11:06:22.378Z,32.65
2018-12-29T11:08:51.995Z,31.70
2018-12-29T11:11:20.802Z,31.60
2018-12-29T11:13:49.643Z,32.40
2018-12-29T11:16:19.243Z,30.23
2018-12-29T11:18:48.499Z,29.57
2018-12-29T11:21:16.920Z,29.17
2018-12-29T11:23:45.835Z,33.17
2018-12-29T11:26:14.773Z,29.90
2018-12-29T11:28:43.496Z,30.98
2018-12-29T11:31:12.348Z,31.57
2018-12-29T11:33:41.171Z,32.20
2018-12-29T11:36:10.753Z,33.13
2018-12-29T11:38:39.579Z,28.83
2018-12-29T11:41:09.182Z,29.90
2018-12-29T11:43:38.039Z,32.47
2018-12-29T11:46:06.882Z,30.73
2018-12-29T11:48:35.714Z,30.33
2018-12-29T11:51:04.563Z,32.07
2018-12-29T11:53:33.403Z,31.90
2018-12-29T11:56:02.280Z,33.47
2018-12-29T11:58:31.133Z,31.13
2018-12-29T12:00:59.972Z,29.87
2018-12-29T12:03:28.815Z,30.40
2018-12-29T12:05:57.663Z,33.50
2018-12-29T12:08:26.542Z,31.63
2018-12-29T12:10:55.959Z,34.63
2018-12-29T12:13:24.816Z,24.27
2018-12-29T12:15:53.652Z,33.67
2018-12-29T12:18:23.395Z,34.40
2018-12-29T12:20:52.086Z,31.87
2018-12-29T12:23:20.921Z,33.43
2018-12-29T12:25:49.773Z,31.73
2018-12-29T12:28:18.605Z,37.00
2018-12-29T12:30:47.450Z,33.57
2018-12-29T12:33:16.283Z,34.50
2018-12-29T12:35:45.155Z,34.23
2018-12-29T12:38:13.953Z,34.67
2018-12-29T12:40:43.533Z,36.70
2018-12-29T12:43:12.367Z,32.10
2018-12-29T12:45:41.204Z,32.10
2018-12-29T12:48:10.041Z,32.60
2018-12-29T12:50:39.615Z,35.87
2018-12-29T12:53:08.471Z,32.80
2018-12-29T12:55:37.353Z,36.28
2018-12-29T12:58:06.164Z,41.23
2018-12-29T13:00:34.994Z,36.08
2018-12-29T13:03:04.586Z,37.83
2018-12-29T13:05:33.457Z,37.88
2018-12-29T13:08:02.250Z,38.45
2018-12-29T13:10:31.140Z,37.03
2018-12-29T13:12:59.978Z,38.65
2018-12-29T13:15:28.821Z,35.00
2018-12-29T13:17:57.660Z,38.43
2018-12-29T13:20:26.507Z,38.20
2018-12-29T13:22:55.362Z,36.83
2018-12-29T13:25:24.195Z,37.33
2018-12-29T13:27:53.036Z,39.30
2018-12-29T13:30:21.872Z,35.63
2018-12-29T13:32:51.469Z,34.67
2018-12-29T13:35:20.300Z,35.23
2018-12-29T13:37:49.138Z,34.67
2018-12-29T13:40:17.990Z,35.00
2018-12-29T13:42:46.832Z,37.43
2018-12-29T13:45:15.701Z,35.03
2018-12-29T13:47:44.549Z,41.45
2018-12-29T13:50:13.381Z,38.97
2018-12-29T13:52:42.209Z,35.57
2018-12-29T13:55:11.080Z,37.17
2018-12-29T13:57:40.652Z,37.90
2018-12-29T14:00:09.504Z,37.63
2018-12-29T14:02:38.353Z,35.53
2018-12-29T14:05:07.193Z,36.47
2018-12-29T14:07:36.054Z,33.20
2018-12-29T14:10:04.903Z,37.42
2018-12-29T14:12:33.738Z,27.70
2018-12-29T14:15:03.185Z,33.53
2018-12-29T14:17:32.025Z,33.77
2018-12-29T14:20:00.901Z,34.60
2018-12-29T14:22:29.747Z,35.83
2018-12-29T14:24:58.592Z,35.17
2018-12-29T14:27:27.462Z,35.33
2018-12-29T14:29:56.287Z,33.47
2018-12-29T14:32:25.140Z,35.43
2018-12-29T14:34:53.998Z,36.88
2018-12-29T14:37:23.568Z,34.00
2018-12-29T14:39:53.172Z,36.90
2018-12-29T14:42:22.019Z,35.27
2018-12-29T14:44:50.852Z,34.00
2018-12-29T14:47:19.702Z,33.10
2018-12-29T14:49:48.562Z,36.10
2018-12-29T14:52:17.442Z,36.70
2018-12-29T14:54:46.277Z,35.90
2018-12-29T14:57:15.120Z,36.00
2018-12-29T14:59:43.985Z,38.57
2018-12-29T15:02:12.882Z,34.03
2018-12-29T15:04:41.740Z,39.88
2018-12-29T15:07:10.592Z,41.23
2018-12-29T15:09:39.458Z,34.97
2018-12-29T15:12:09.032Z,35.53
2018-12-29T15:14:37.872Z,37.00
2018-12-29T15:17:06.708Z,35.77
2018-12-29T15:19:35.595Z,35.47
2018-12-29T15:22:04.412Z,37.63
2018-12-29T15:24:33.275Z,34.53
2018-12-29T15:27:02.126Z,35.92
2018-12-29T15:29:30.969Z,32.47
2018-12-29T15:31:59.839Z,33.10
2018-12-29T15:34:28.677Z,35.40
2018-12-29T15:36:58.257Z,33.97
2018-12-29T15:39:27.110Z,33.50
2018-12-29T15:41:55.953Z,32.67
2018-12-29T15:44:25.527Z,31.30
2018-12-29T15:46:54.383Z,31.83
2018-12-29T15:49:23.228Z,33.13
2018-12-29T15:51:52.088Z,30.93
2018-12-29T15:54:20.927Z,31.35
2018-12-29T15:56:49.780Z,29.23
2018-12-29T15:59:19.206Z,27.90
2018-12-29T16:01:48.059Z,27.77
2018-12-29T16:04:16.909Z,27.05
2018-12-29T16:06:45.781Z,25.20
2018-12-29T16:09:14.590Z,25.17
2018-12-29T16:11:43.444Z,24.23
2018-12-29T16:14:12.305Z,24.87
2018-12-29T16:16:41.157Z,24.67
2018-12-29T16:19:10.006Z,24.03
2018-12-29T16:21:38.858Z,22.17
2018-12-29T16:24:07.707Z,26.00
2018-12-29T16:26:36.569Z,25.83
2018-12-29T16:29:05.416Z,24.98
2018-12-29T16:31:34.276Z,24.80
2018-12-29T16:34:03.106Z,24.77
2018-12-29T16:36:31.953Z,22.23
2018-12-29T16:39:01.540Z,23.07
2018-12-29T16:41:31.138Z,25.60
2018-12-29T16:43:59.990Z,24.90
2018-12-29T16:46:28.826Z,26.00
2018-12-29T16:48:57.667Z,24.20
2018-12-29T16:51:26.514Z,24.67
2018-12-29T16:53:55.419Z,24.73
2018-12-29T16:56:24.982Z,22.63
2018-12-29T16:58:53.851Z,26.53
2018-12-29T17:01:22.691Z,25.53
2018-12-29T17:03:52.331Z,24.97
2018-12-29T17:06:21.956Z,23.10
2018-12-29T17:08:50.822Z,25.30
2018-12-29T17:11:19.639Z,26.20
2018-12-29T17:13:48.531Z,25.67
2018-12-29T17:16:17.350Z,25.87
2018-12-29T17:18:46.803Z,23.93
2018-12-29T17:21:15.696Z,27.10
2018-12-29T17:23:44.536Z,28.70
2018-12-29T17:26:13.396Z,26.53
2018-12-29T17:28:42.238Z,27.35
2018-12-29T17:31:11.083Z,27.63
2018-12-29T17:33:39.945Z,27.90
2018-12-29T17:36:08.797Z,32.60
2018-12-29T17:38:37.768Z,30.83
2018-12-29T17:41:06.573Z,33.40
2018-12-29T17:43:36.213Z,32.87
2018-12-29T17:46:05.061Z,30.50
2018-12-29T17:48:33.899Z,33.57
2018-12-29T17:51:02.748Z,31.50
2018-12-29T17:53:31.584Z,34.50
2018-12-29T17:56:00.434Z,35.73
2018-12-29T17:58:29.287Z,32.67
2018-12-29T18:00:58.137Z,33.57
2018-12-29T18:03:26.977Z,34.50
2018-12-29T18:05:55.832Z,32.80
2018-12-29T18:08:24.669Z,35.47
2018-12-29T18:10:54.255Z,36.57
2018-12-29T18:13:23.109Z,38.97
2018-12-29T18:15:51.986Z,36.00
2018-12-29T18:18:20.827Z,35.03
2018-12-29T18:20:49.689Z,34.23
2018-12-29T18:23:18.576Z,35.85
2018-12-29T18:25:47.398Z,35.73
2018-12-29T18:28:16.264Z,34.83
2018-12-29T18:30:45.131Z,36.40
2018-12-29T18:33:13.979Z,38.83
2018-12-29T18:35:43.571Z,37.07
2018-12-29T18:38:12.433Z,35.97
2018-12-29T18:40:41.312Z,34.75
2018-12-29T18:43:10.154Z,35.53
2018-12-29T18:45:38.969Z,34.77
2018-12-29T18:48:07.838Z,39.70
2018-12-29T18:50:36.689Z,41.07
2018-12-29T18:53:05.533Z,36.67
2018-12-29T18:55:34.393Z,39.87
2018-12-29T18:58:03.974Z,39.60
2018-12-29T19:00:32.820Z,40.40
2018-12-29T19:03:01.730Z,56.80
2018-12-29T19:05:30.659Z,47.43
2018-12-29T19:07:59.522Z,45.70
2018-12-29T19:10:28.375Z,41.93
2018-12-29T19:12:57.278Z,42.30
2018-12-29T19:15:27.677Z,43.90
2018-12-29T19:17:55.743Z,41.43
2018-12-29T19:20:25.343Z,43.00
2018-12-29T19:22:54.970Z,47.00
2018-12-29T19:25:23.830Z,49.40
2018-12-29T19:27:52.686Z,46.70
2018-12-29T19:30:21.592Z,49.95
2018-12-29T19:32:50.452Z,48.17
2018-12-29T19:35:19.253Z,45.57
2018-12-29T19:37:48.148Z,50.20
2018-12-29T19:40:16.951Z,46.53
2018-12-29T19:42:45.803Z,45.97
2018-12-29T19:45:14.757Z,43.87
2018-12-29T19:47:43.625Z,44.57
2018-12-29T19:50:13.054Z,44.13
2018-12-29T19:52:42.654Z,48.27
2018-12-29T19:55:12.260Z,43.03
2018-12-29T19:57:41.861Z,42.97
2018-12-29T20:00:11.456Z,45.40
2018-12-29T20:02:40.296Z,46.73
2018-12-29T20:05:09.174Z,48.43
2018-12-29T20:07:37.983Z,45.90
2018-12-29T20:10:06.859Z,50.17
2018-12-29T20:12:35.696Z,47.78
2018-12-29T20:15:04.545Z,48.80
2018-12-29T20:17:35.043Z,44.30
2018-12-29T20:20:02.262Z,49.55
2018-12-29T20:22:31.120Z,44.37
2018-12-29T20:24:59.916Z,44.00
2018-12-29T20:27:29.493Z,41.93
2018-12-29T20:29:58.344Z,47.90
2018-12-29T20:32:27.178Z,50.23
2018-12-29T20:34:56.035Z,47.30
2018-12-29T20:37:24.878Z,45.30
2018-12-29T20:39:54.461Z,49.00
2018-12-29T20:42:23.321Z,47.70
2018-12-29T20:44:52.155Z,47.17
2018-12-29T20:47:21.022Z,47.07
2018-12-29T20:49:49.872Z,46.50
2018-12-29T20:52:18.740Z,46.63
2018-12-29T20:54:47.619Z,46.63
2018-12-29T20:57:17.220Z,48.00
2018-12-29T20:59:46.074Z,50.77
2018-12-29T21:02:14.915Z,50.87
2018-12-29T21:04:43.781Z,49.00
2018-12-29T21:07:12.638Z,44.00
2018-12-29T21:09:41.529Z,34.97
2018-12-29T21:12:10.371Z,38.13
2018-12-29T21:14:39.212Z,36.87
2018-12-29T21:17:08.112Z,31.80
2018-12-29T21:19:37.071Z,33.17
2018-12-29T21:22:07.410Z,32.77
2018-12-29T21:24:35.400Z,35.83
2018-12-29T21:27:04.257Z,29.73
2018-12-29T21:29:33.100Z,30.03
2018-12-29T21:32:02.701Z,30.37
2018-12-29T21:34:31.560Z,33.13
2018-12-29T21:37:00.411Z,33.73
2018-12-29T21:39:29.269Z,28.07
2018-12-29T21:41:58.091Z,26.67
2018-12-29T21:44:26.951Z,21.80
2018-12-29T21:46:55.805Z,21.53
2018-12-29T21:49:24.649Z,22.23
2018-12-29T21:51:53.515Z,22.60
2018-12-29T21:54:22.397Z,19.53
2018-12-29T21:56:51.196Z,18.27
2018-12-29T21:59:20.027Z,19.67
2018-12-29T22:01:48.874Z,19.10
2018-12-29T22:04:17.713Z,18.40
2018-12-29T22:06:46.550Z,17.50
2018-12-29T22:09:15.423Z,17.47
2018-12-29T22:11:44.370Z,17.10
2018-12-29T22:14:13.233Z,17.50
2018-12-29T22:16:42.844Z,16.80
2018-12-29T22:19:11.701Z,17.53
2018-12-29T22:21:40.842Z,16.43
2018-12-29T22:24:09.681Z,16.20
2018-12-29T22:26:38.680Z,15.17
2018-12-29T22:29:08.275Z,15.20
2018-12-29T22:31:37.128Z,17.90
2018-12-29T22:34:05.982Z,17.10
2018-12-29T22:36:34.827Z,16.83
2018-12-29T22:39:03.664Z,17.03
2018-12-29T22:41:32.503Z,17.10
2018-12-29T22:44:01.389Z,19.30
2018-12-29T22:46:30.292Z,18.10
2018-12-29T22:48:59.120Z,17.57
2018-12-29T22:51:28.716Z,16.97
2018-12-29T22:54:37.691Z,19.43
2018-12-29T22:57:06.535Z,18.60
2018-12-29T22:59:35.470Z,17.97
2018-12-29T23:02:04.349Z,18.70
2018-12-29T23:04:33.197Z,19.67
2018-12-29T23:07:02.057Z,18.80
2018-12-29T23:09:30.899Z,20.02
2018-12-29T23:11:59.747Z,18.70
2018-12-29T23:14:28.584Z,18.30
2018-12-29T23:16:58.173Z,18.60
2018-12-29T23:19:27.753Z,17.87
2018-12-29T23:21:56.597Z,17.47
2018-12-29T23:24:25.501Z,19.00
2018-12-29T23:26:54.297Z,18.17
2018-12-29T23:29:23.139Z,18.63
2018-12-29T23:31:52.015Z,18.33
2018-12-29T23:34:20.833Z,18.33
2018-12-29T23:36:49.675Z,19.00
2018-12-29T23:39:18.529Z,20.40
2018-12-29T23:41:47.378Z,20.37
2018-12-29T23:44:16.233Z,20.57
2018-12-29T23:46:45.079Z,22.83
2018-12-29T23:49:13.941Z,21.27
2018-12-29T23:51:42.795Z,20.87
2018-12-29T23:54:11.647Z,23.73
2018-12-29T23:56:40.505Z,22.37
2018-12-29T23:59:09.372Z,22.10
